Time;durP1;ratioP1;P1;durP2;ratioP2;P2;SDS_P1;SDS_P2;PMS_P1;PMS_P2;Temp;Humidity;BMP_temperature;BMP_pressure;BME280_temperature;BME280_humidity;BME280_pressure;Samples;Min_cycle;Max_cycle;Signal;HPM_P1;HPM_P2
2023/11/21 00:02:53;;;;;;;7.18;0.90;;;;;;;;;;10541905;28;20480;-74
2023/11/21 00:07:57;;;;;;;1.17;0.60;;;;;;;;;;10545546;28;20131;-76
2023/11/21 00:13:02;;;;;;;3.97;0.90;;;;;;;;;;10568938;27;20119;-75
2023/11/21 00:18:05;;;;;;;6.57;1.15;;;;;;;;;;10572249;28;20036;-75
2023/11/21 00:23:09;;;;;;;3.97;0.80;;;;;;;;;;10553501;28;20035;-75
2023/11/21 00:28:13;;;;;;;1.63;0.57;;;;;;;;;;10564587;28;20040;-75
2023/11/21 00:33:16;;;;;;;3.33;0.68;;;;;;;;;;10548781;28;20063;-75
2023/11/21 00:38:23;;;;;;;0.60;0.50;;;;;;;;;;10555986;28;20131;-75
2023/11/21 00:43:27;;;;;;;1.65;0.75;;;;;;;;;;10571158;28;20439;-75
2023/11/21 00:48:30;;;;;;;3.88;1.05;;;;;;;;;;10554928;28;20044;-74
2023/11/21 00:53:36;;;;;;;0.50;0.50;;;;;;;;;;10554288;28;20047;-75
2023/11/21 00:58:42;;;;;;;0.68;0.40;;;;;;;;;;10535036;28;20051;-75
2023/11/21 01:03:47;;;;;;;2.35;0.47;;;;;;;;;;10557737;28;20059;-75
2023/11/21 01:08:51;;;;;;;1.90;0.65;;;;;;;;;;10556550;28;20434;-75
2023/11/21 01:13:54;;;;;;;5.07;0.63;;;;;;;;;;10565181;27;20163;-74
2023/11/21 01:18:58;;;;;;;1.47;0.53;;;;;;;;;;10521912;27;20521;-74
2023/11/21 01:24:05;;;;;;;5.55;1.27;;;;;;;;;;10558901;27;20067;-74
2023/11/21 01:29:08;;;;;;;2.67;0.98;;;;;;;;;;10561255;27;20471;-74
2023/11/21 01:34:11;;;;;;;1.50;0.90;;;;;;;;;;10572597;27;20119;-75
2023/11/21 01:39:23;;;;;;;4.15;0.80;;;;;;;;;;10554714;27;20643;-75
2023/11/21 01:44:26;;;;;;;3.95;0.90;;;;;;;;;;10558619;27;20414;-75
2023/11/21 01:49:29;;;;;;;1.07;0.50;;;;;;;;;;10553077;27;22248;-75
2023/11/21 01:54:34;;;;;;;4.07;1.00;;;;;;;;;;10560954;27;20475;-76
2023/11/21 01:59:37;;;;;;;1.05;0.60;;;;;;;;;;10556954;27;20118;-76
2023/11/21 02:04:41;;;;;;;1.02;0.32;;;;;;;;;;10538381;27;20040;-75
2023/11/21 02:09:46;;;;;;;3.83;0.77;;;;;;;;;;10535811;27;20036;-75
2023/11/21 02:14:48;;;;;;;3.58;0.77;;;;;;;;;;10558399;27;20132;-74
2023/11/21 02:19:53;;;;;;;5.13;0.90;;;;;;;;;;10538155;28;20043;-75
2023/11/21 02:24:58;;;;;;;1.97;0.67;;;;;;;;;;10524037;27;20039;-77
2023/11/21 02:30:04;;;;;;;5.07;0.82;;;;;;;;;;10540407;27;20422;-76
2023/11/21 02:35:08;;;;;;;3.25;1.13;;;;;;;;;;10540304;28;20093;-75
2023/11/21 02:40:17;;;;;;;1.70;0.68;;;;;;;;;;10533242;27;20039;-76
2023/11/21 02:45:20;;;;;;;1.40;0.80;;;;;;;;;;10554566;27;20126;-75
2023/11/21 02:50:25;;;;;;;1.40;0.40;;;;;;;;;;10540453;28;20043;-75
2023/11/21 02:55:30;;;;;;;1.35;0.30;;;;;;;;;;10541908;28;20505;-74
2023/11/21 03:00:34;;;;;;;1.13;0.50;;;;;;;;;;10560994;27;20101;-75
2023/11/21 03:05:39;;;;;;;1.90;0.47;;;;;;;;;;10523756;27;20047;-76
2023/11/21 03:10:46;;;;;;;2.13;0.40;;;;;;;;;;10542017;27;20048;-75
2023/11/21 03:15:48;;;;;;;3.38;0.90;;;;;;;;;;10553458;27;20051;-75
2023/11/21 03:20:55;;;;;;;1.50;0.80;;;;;;;;;;10556869;27;20067;-75
2023/11/21 03:25:59;;;;;;;3.42;0.88;;;;;;;;;;10566136;27;20494;-75
2023/11/21 03:31:02;;;;;;;2.50;0.90;;;;;;;;;;10557257;27;20127;-75
2023/11/21 03:36:07;;;;;;;3.60;0.82;;;;;;;;;;10534953;27;20131;-75
2023/11/21 03:41:13;;;;;;;2.60;0.70;;;;;;;;;;10527684;27;20065;-76
2023/11/21 03:46:17;;;;;;;2.15;0.30;;;;;;;;;;10553165;27;20102;-75
2023/11/21 03:51:20;;;;;;;2.03;0.68;;;;;;;;;;10538591;27;20058;-75
2023/11/21 03:56:24;;;;;;;4.00;1.08;;;;;;;;;;10537381;28;20488;-76
2023/11/21 04:01:28;;;;;;;6.97;0.43;;;;;;;;;;10551070;27;20089;-75
2023/11/21 04:06:32;;;;;;;1.50;0.60;;;;;;;;;;10568906;27;20126;-76
2023/11/21 04:11:37;;;;;;;2.30;0.80;;;;;;;;;;10536493;28;20309;-75
2023/11/21 04:16:43;;;;;;;0.35;0.35;;;;;;;;;;10528961;28;20032;-75
2023/11/21 04:21:46;;;;;;;3.53;0.75;;;;;;;;;;10553061;27;20073;-75
2023/11/21 04:26:51;;;;;;;0.25;0.17;;;;;;;;;;10555986;28;20038;-75
2023/11/21 04:31:54;;;;;;;2.50;0.60;;;;;;;;;;10565794;27;20424;-75
2023/11/21 04:36:57;;;;;;;0.60;0.10;;;;;;;;;;10535238;28;20156;-75
2023/11/21 04:42:02;;;;;;;2.08;0.50;;;;;;;;;;10533924;28;20036;-72
2023/11/21 04:47:05;;;;;;;2.38;0.32;;;;;;;;;;10542998;28;20059;-74
2023/11/21 04:52:10;;;;;;;1.20;0.28;;;;;;;;;;10543692;27;20413;-75
2023/11/21 04:57:14;;;;;;;;;;;;;;;;;;10543285;27;20055;-75
2023/11/21 05:02:21;;;;;;;1.15;0.47;;;;;;;;;;10540846;27;19927;-75
2023/11/21 05:07:37;;;;;;;0.50;0.40;;;;;;;;;;10532452;27;20064;-76
2023/11/21 05:12:41;;;;;;;2.77;0.67;;;;;;;;;;10565378;27;20038;-75
2023/11/21 05:17:45;;;;;;;1.58;0.50;;;;;;;;;;10558807;27;20027;-74
2023/11/21 05:22:50;;;;;;;0.95;0.50;;;;;;;;;;10539972;27;20157;-75
2023/11/21 05:27:54;;;;;;;1.10;0.30;;;;;;;;;;10541251;27;20032;-75
2023/11/21 05:32:59;;;;;;;1.25;0.50;;;;;;;;;;10528965;28;20050;-75
2023/11/21 05:38:02;;;;;;;3.60;0.60;;;;;;;;;;10541792;27;20058;-74
2023/11/21 05:43:06;;;;;;;1.55;0.82;;;;;;;;;;10531654;27;20039;-74
2023/11/21 05:48:11;;;;;;;3.00;1.03;;;;;;;;;;10546112;27;20130;-74
2023/11/21 05:53:15;;;;;;;3.53;0.60;;;;;;;;;;10563467;27;20550;-75
2023/11/21 05:58:18;;;;;;;;;;;;;;;;;;10546603;27;20523;-75
2023/11/21 06:03:23;;;;;;;1.15;0.57;;;;;;;;;;10557550;27;19928;-74
2023/11/21 06:08:26;;;;;;;5.68;1.05;;;;;;;;;;10533412;27;20035;-74
2023/11/21 06:13:29;;;;;;;4.10;0.88;;;;;;;;;;10543636;28;20047;-74
2023/11/21 06:18:34;;;;;;;1.45;0.38;;;;;;;;;;10558658;27;20036;-73
2023/11/21 06:23:38;;;;;;;0.60;0.30;;;;;;;;;;10561281;27;20073;-74
2023/11/21 06:28:41;;;;;;;3.83;0.77;;;;;;;;;;10555803;27;20044;-74
2023/11/21 06:33:46;;;;;;;0.47;0.47;;;;;;;;;;10554941;27;20127;-75
2023/11/21 06:38:49;;;;;;;1.65;0.70;;;;;;;;;;10559120;27;20266;-74
2023/11/21 06:43:52;;;;;;;3.15;0.60;;;;;;;;;;10541306;27;20040;-74
2023/11/21 06:48:56;;;;;;;;;;;;;;;;;;10537470;28;20112;-74
2023/11/21 06:54:01;;;;;;;3.53;0.70;;;;;;;;;;10555062;27;19927;-74
2023/11/21 06:59:05;;;;;;;1.95;0.60;;;;;;;;;;10542672;27;20618;-74
2023/11/21 07:04:09;;;;;;;1.40;0.32;;;;;;;;;;10535739;27;20047;-75
2023/11/21 07:09:15;;;;;;;3.70;0.73;;;;;;;;;;10550330;28;20084;-75
2023/11/21 07:14:19;;;;;;;3.70;0.50;;;;;;;;;;10556102;27;20130;-74
2023/11/21 07:19:22;;;;;;;4.00;0.80;;;;;;;;;;10540449;27;20043;-74
2023/11/21 07:24:27;;;;;;;2.50;0.90;;;;;;;;;;10554094;27;20039;-74
2023/11/21 07:29:30;;;;;;;1.27;0.77;;;;;;;;;;10537186;28;20039;-74
2023/11/21 07:34:35;;;;;;;0.70;0.70;;;;;;;;;;10541072;27;20118;-74
2023/11/21 07:39:41;;;;;;;1.85;0.77;;;;;;;;;;10550352;27;20055;-74
2023/11/21 07:44:46;;;;;;;1.33;0.70;;;;;;;;;;10552396;27;20039;-74
2023/11/21 07:49:49;;;;;;;;;;;;;;;;;;10527019;28;20037;-74
2023/11/21 07:54:54;;;;;;;1.75;0.45;;;;;;;;;;10555198;27;19923;-74
2023/11/21 08:00:00;;;;;;;1.25;0.57;;;;;;;;;;10539412;28;20044;-74
2023/11/21 08:05:03;;;;;;;1.70;0.50;;;;;;;;;;10526952;28;20047;-75
2023/11/21 08:10:10;;;;;;;3.22;0.77;;;;;;;;;;10535819;28;20120;-74
2023/11/21 08:15:13;;;;;;;2.65;0.50;;;;;;;;;;10539276;28;20127;-76
2023/11/21 08:20:17;;;;;;;1.00;0.50;;;;;;;;;;10536554;27;20031;-76
2023/11/21 08:25:22;;;;;;;1.30;0.17;;;;;;;;;;10555790;28;20461;-76
2023/11/21 08:30:25;;;;;;;3.20;0.68;;;;;;;;;;10553170;27;20047;-76
2023/11/21 08:35:28;;;;;;;2.17;1.20;;;;;;;;;;10571397;27;20139;-74
2023/11/21 08:40:32;;;;;;;3.03;0.75;;;;;;;;;;10534793;28;20494;-76
2023/11/21 08:45:36;;;;;;;0.82;0.60;;;;;;;;;;10570292;27;20047;-75
2023/11/21 08:50:38;;;;;;;1.73;0.77;;;;;;;;;;10552878;28;20138;-76
2023/11/21 08:55:44;;;;;;;1.15;0.45;;;;;;;;;;10537220;28;20853;-75
2023/11/21 09:00:47;;;;;;;1.60;0.60;;;;;;;;;;10538403;28;20174;-76
2023/11/21 09:05:51;;;;;;;1.85;0.70;;;;;;;;;;10538928;28;20089;-76
2023/11/21 09:10:55;;;;;;;0.85;0.52;;;;;;;;;;10548572;28;20408;-76
2023/11/21 09:15:58;;;;;;;1.98;0.60;;;;;;;;;;10551334;28;20062;-75
2023/11/21 09:21:02;;;;;;;1.30;0.60;;;;;;;;;;10536384;28;20059;-75
2023/11/21 09:26:06;;;;;;;2.58;0.75;;;;;;;;;;10533565;28;20093;-75
2023/11/21 09:31:09;;;;;;;3.72;0.90;;;;;;;;;;10555487;27;20755;-75
2023/11/21 09:36:13;;;;;;;1.75;0.73;;;;;;;;;;10541140;27;20253;-75
2023/11/21 09:41:17;;;;;;;;;;;;;;;;;;10559958;27;20050;-75
2023/11/21 09:46:23;;;;;;;1.88;1.10;;;;;;;;;;10562441;27;20046;-75
2023/11/21 09:51:29;;;;;;;1.75;1.40;;;;;;;;;;10545823;28;20046;-75
2023/11/21 09:56:33;;;;;;;1.30;1.27;;;;;;;;;;10542730;27;20126;-75
2023/11/21 10:01:39;;;;;;;3.20;1.13;;;;;;;;;;10558970;27;20052;-75
2023/11/21 10:06:42;;;;;;;0.80;0.70;;;;;;;;;;10527917;28;20048;-75
2023/11/21 10:11:45;;;;;;;1.13;0.70;;;;;;;;;;10546835;27;20545;-76
2023/11/21 10:16:50;;;;;;;1.13;0.68;;;;;;;;;;10541425;28;20447;-75
2023/11/21 10:21:54;;;;;;;1.15;0.70;;;;;;;;;;10555065;27;20443;-75
2023/11/21 10:26:57;;;;;;;2.03;0.70;;;;;;;;;;10537949;27;20051;-74
2023/11/21 10:32:01;;;;;;;1.55;0.70;;;;;;;;;;10556341;27;20502;-75
2023/11/21 10:37:12;;;;;;;1.20;1.00;;;;;;;;;;10525831;27;20751;-76
2023/11/21 10:42:15;;;;;;;1.52;0.93;;;;;;;;;;10534872;27;20063;-75
2023/11/21 10:47:20;;;;;;;2.55;0.80;;;;;;;;;;10558732;27;20081;-76
2023/11/21 10:52:27;;;;;;;2.08;0.73;;;;;;;;;;10533154;28;20051;-75
2023/11/21 10:57:31;;;;;;;2.28;1.13;;;;;;;;;;10541765;27;20044;-75
2023/11/21 11:02:35;;;;;;;1.85;1.10;;;;;;;;;;10520150;27;20050;-75
2023/11/21 11:07:41;;;;;;;0.90;0.88;;;;;;;;;;10574249;27;20093;-75
2023/11/21 11:12:46;;;;;;;2.30;1.00;;;;;;;;;;10543180;28;20051;-74
2023/11/21 11:17:51;;;;;;;1.52;1.00;;;;;;;;;;10553082;27;20160;-74
2023/11/21 11:23:12;;;;;;;2.95;1.20;;;;;;;;;;10555878;27;20035;-75
2023/11/21 11:28:18;;;;;;;1.45;0.70;;;;;;;;;;10554653;27;20035;-74
2023/11/21 11:33:27;;;;;;;1.95;1.08;;;;;;;;;;10551004;27;20533;-75
2023/11/21 11:38:35;;;;;;;1.67;0.95;;;;;;;;;;10555022;27;20051;-76
2023/11/21 11:43:44;;;;;;;1.80;0.60;;;;;;;;;;10541031;28;20440;-75
2023/11/21 11:48:51;;;;;;;1.30;0.65;;;;;;;;;;10553342;27;20073;-76
2023/11/21 11:53:56;;;;;;;2.25;1.08;;;;;;;;;;10558909;27;20957;-76
2023/11/21 11:59:02;;;;;;;1.38;0.63;;;;;;;;;;10554970;27;20054;-77
2023/11/21 12:04:24;;;;;;;0.85;0.60;;;;;;;;;;10553135;27;20063;-76
2023/11/21 12:09:29;;;;;;;0.55;0.40;;;;;;;;;;10551852;27;20071;-75
2023/11/21 12:14:32;;;;;;;1.42;0.55;;;;;;;;;;10520205;28;20487;-76
2023/11/21 12:19:36;;;;;;;1.25;0.57;;;;;;;;;;10536353;28;20051;-74
2023/11/21 12:24:41;;;;;;;1.63;0.70;;;;;;;;;;10529318;28;20621;-76
2023/11/21 12:29:44;;;;;;;1.17;0.80;;;;;;;;;;10536664;28;20071;-76
2023/11/21 12:34:46;;;;;;;1.65;0.80;;;;;;;;;;10535750;28;20435;-76
2023/11/21 12:39:53;;;;;;;0.60;0.60;;;;;;;;;;10555910;28;20031;-76
2023/11/21 12:45:08;;;;;;;1.27;0.63;;;;;;;;;;10532643;28;20136;-75
2023/11/21 12:50:14;;;;;;;1.25;1.02;;;;;;;;;;10552004;28;20199;-75
2023/11/21 12:55:21;;;;;;;3.20;1.00;;;;;;;;;;10566461;27;20108;-75
2023/11/21 13:00:29;;;;;;;1.58;0.63;;;;;;;;;;10536336;28;20036;-76
2023/11/21 13:05:34;;;;;;;1.63;0.70;;;;;;;;;;10555061;28;20035;-76
2023/11/21 13:10:39;;;;;;;1.70;0.70;;;;;;;;;;10557235;27;20044;-75
2023/11/21 13:15:48;;;;;;;1.60;1.08;;;;;;;;;;10560458;27;20036;-76
2023/11/21 13:20:53;;;;;;;5.43;1.00;;;;;;;;;;10560112;27;20059;-76
2023/11/21 13:25:58;;;;;;;3.00;1.13;;;;;;;;;;10516259;27;20509;-75
2023/11/21 13:31:20;;;;;;;2.25;0.80;;;;;;;;;;10544173;27;20066;-76
2023/11/21 13:36:25;;;;;;;4.75;1.90;;;;;;;;;;10561519;27;20047;-75
2023/11/21 13:41:31;;;;;;;3.47;1.20;;;;;;;;;;10558040;27;20791;-76
2023/11/21 13:46:37;;;;;;;6.75;2.50;;;;;;;;;;10556631;27;20047;-77
2023/11/21 13:51:44;;;;;;;1.52;0.90;;;;;;;;;;10553499;27;20469;-76
2023/11/21 13:56:50;;;;;;;1.40;0.80;;;;;;;;;;10542513;27;20055;-75
2023/11/21 14:01:57;;;;;;;2.35;0.52;;;;;;;;;;10560701;27;20071;-75
2023/11/21 14:07:20;;;;;;;1.55;0.88;;;;;;;;;;10543404;27;20291;-75
2023/11/21 14:12:24;;;;;;;2.13;0.80;;;;;;;;;;10558225;27;20059;-78
2023/11/21 14:17:28;;;;;;;2.17;0.73;;;;;;;;;;10575298;27;20044;-75
2023/11/21 14:22:31;;;;;;;0.65;0.55;;;;;;;;;;10559211;27;20051;-76
2023/11/21 14:27:36;;;;;;;1.63;0.60;;;;;;;;;;10541511;27;20061;-76
2023/11/21 14:32:39;;;;;;;0.70;0.40;;;;;;;;;;10558446;27;20446;-74
2023/11/21 14:37:42;;;;;;;0.67;0.50;;;;;;;;;;10560334;27;20116;-76
2023/11/21 14:42:47;;;;;;;0.88;0.50;;;;;;;;;;10526954;27;20301;-74
2023/11/21 14:47:58;;;;;;;1.20;0.50;;;;;;;;;;10535523;28;20401;-75
2023/11/21 14:53:05;;;;;;;1.88;0.60;;;;;;;;;;10554812;27;20663;-75
2023/11/21 14:58:15;;;;;;;1.02;0.68;;;;;;;;;;10538318;27;20032;-76
2023/11/21 15:03:37;;;;;;;3.35;2.15;;;;;;;;;;10557429;27;20097;-75
2023/11/21 15:08:43;;;;;;;0.50;0.50;;;;;;;;;;10537920;27;20044;-76
2023/11/21 15:13:48;;;;;;;2.25;0.82;;;;;;;;;;10557429;28;20070;-77
2023/11/21 15:18:53;;;;;;;4.82;0.80;;;;;;;;;;10535789;28;20496;-76
2023/11/21 15:23:55;;;;;;;3.40;0.70;;;;;;;;;;10570751;27;20040;-77
2023/11/21 15:29:00;;;;;;;1.80;0.95;;;;;;;;;;10536825;28;20112;-75
2023/11/21 15:34:05;;;;;;;1.42;0.93;;;;;;;;;;10553749;27;20052;-75
2023/11/21 15:39:09;;;;;;;2.63;1.08;;;;;;;;;;10549922;27;20107;-75
2023/11/21 15:44:14;;;;;;;5.32;1.40;;;;;;;;;;10551804;27;20050;-75
2023/11/21 15:49:19;;;;;;;6.47;1.35;;;;;;;;;;10538846;28;20042;-75
2023/11/21 15:54:24;;;;;;;4.45;1.15;;;;;;;;;;10553244;28;20054;-76
2023/11/21 15:59:31;;;;;;;1.35;0.88;;;;;;;;;;10552057;27;20075;-75
2023/11/21 16:04:36;;;;;;;3.95;1.02;;;;;;;;;;10536074;28;20035;-75
2023/11/21 16:09:42;;;;;;;1.75;0.90;;;;;;;;;;10537667;28;20173;-75
2023/11/21 16:14:47;;;;;;;1.35;1.10;;;;;;;;;;10552251;27;20484;-77
2023/11/21 16:19:50;;;;;;;1.00;0.88;;;;;;;;;;10537372;27;20032;-74
2023/11/21 16:24:53;;;;;;;2.67;1.20;;;;;;;;;;10536706;27;20158;-76
2023/11/21 16:29:58;;;;;;;3.77;1.60;;;;;;;;;;10555146;27;20039;-74
2023/11/21 16:35:02;;;;;;;4.00;1.50;;;;;;;;;;10552306;28;20246;-76
2023/11/21 16:40:07;;;;;;;;;;;;;;;;;;10527248;27;20123;-76
2023/11/21 16:45:11;;;;;;;3.80;1.77;;;;;;;;;;10564548;27;19924;-75
2023/11/21 16:50:14;;;;;;;3.55;1.60;;;;;;;;;;10548421;27;21412;-75
2023/11/21 16:55:17;;;;;;;4.40;1.95;;;;;;;;;;10563713;27;20127;-75
2023/11/21 17:00:22;;;;;;;2.85;1.70;;;;;;;;;;10557799;27;20470;-76
2023/11/21 17:05:25;;;;;;;2.67;1.60;;;;;;;;;;10583926;27;20055;-76
2023/11/21 17:10:28;;;;;;;4.53;1.90;;;;;;;;;;10545215;27;20127;-75
2023/11/21 17:15:34;;;;;;;11.23;4.88;;;;;;;;;;10553690;27;20048;-75
2023/11/21 17:21:00;;;;;;;3.78;1.80;;;;;;;;;;10587838;27;20070;-77
2023/11/21 17:31:45;;;;;;;3.08;1.75;;;;;;;;;;10543460;27;20382;-76
2023/11/21 17:36:48;;;;;;;3.80;1.50;;;;;;;;;;10564716;27;20412;-74
2023/11/21 17:41:52;;;;;;;2.40;1.77;;;;;;;;;;10546390;27;20093;-74
2023/11/21 17:46:56;;;;;;;3.33;1.70;;;;;;;;;;10574047;27;20038;-75
2023/11/21 17:51:59;;;;;;;2.85;1.83;;;;;;;;;;10574669;27;20165;-75
2023/11/21 17:57:03;;;;;;;5.13;1.90;;;;;;;;;;10572569;27;20438;-76
2023/11/21 18:02:08;;;;;;;6.03;2.20;;;;;;;;;;10549298;28;20125;-75
2023/11/21 18:07:19;;;;;;;7.03;2.40;;;;;;;;;;10581272;27;20116;-74
2023/11/21 18:12:22;;;;;;;6.25;2.30;;;;;;;;;;10571232;28;20469;-76
2023/11/21 18:17:27;;;;;;;6.57;2.75;;;;;;;;;;10569855;28;20569;-75
2023/11/21 18:22:31;;;;;;;10.02;3.10;;;;;;;;;;10572057;28;20039;-75
2023/11/21 18:27:37;;;;;;;6.53;3.03;;;;;;;;;;10573032;28;20047;-74
2023/11/21 18:32:45;;;;;;;5.10;2.72;;;;;;;;;;10575835;27;20481;-75
2023/11/21 18:37:54;;;;;;;6.88;2.85;;;;;;;;;;10574752;27;20066;-74
2023/11/21 18:42:57;;;;;;;5.07;2.90;;;;;;;;;;10569378;28;20416;-75
2023/11/21 18:48:13;;;;;;;6.03;2.97;;;;;;;;;;10547880;28;20128;-75
2023/11/21 18:53:25;;;;;;;7.72;3.50;;;;;;;;;;10577820;27;20089;-75
2023/11/21 18:58:28;;;;;;;5.65;2.95;;;;;;;;;;10553360;27;20065;-75
2023/11/21 19:03:35;;;;;;;9.70;4.07;;;;;;;;;;10559975;27;20655;-76
2023/11/21 19:08:38;;;;;;;8.35;4.18;;;;;;;;;;10569269;28;20055;-76
2023/11/21 19:13:41;;;;;;;9.52;4.38;;;;;;;;;;10546790;28;20465;-76
2023/11/21 19:18:50;;;;;;;9.52;4.32;;;;;;;;;;10562895;28;20032;-76
2023/11/21 19:23:53;;;;;;;9.13;3.97;;;;;;;;;;10537807;27;20047;-75
2023/11/21 19:28:57;;;;;;;8.53;3.70;;;;;;;;;;10539319;27;20381;-75
2023/11/21 19:34:02;;;;;;;7.28;3.25;;;;;;;;;;10534623;28;20066;-75
2023/11/21 19:39:04;;;;;;;8.57;3.20;;;;;;;;;;10559332;27;20044;-75
2023/11/21 19:44:08;;;;;;;5.85;3.00;;;;;;;;;;10524660;27;20135;-75
2023/11/21 19:49:13;;;;;;;7.00;2.50;;;;;;;;;;10539296;28;20067;-75
2023/11/21 19:54:16;;;;;;;5.18;2.47;;;;;;;;;;10552421;28;20046;-75
2023/11/21 19:59:22;;;;;;;4.70;2.53;;;;;;;;;;10545687;27;20374;-75
2023/11/21 20:04:27;;;;;;;4.35;1.95;;;;;;;;;;10532840;28;20051;-74
2023/11/21 20:09:30;;;;;;;4.90;2.03;;;;;;;;;;10560042;27;20044;-74
2023/11/21 20:14:37;;;;;;;3.80;2.00;;;;;;;;;;10558507;28;20051;-74
2023/11/21 20:19:42;;;;;;;4.47;2.58;;;;;;;;;;10555098;27;20035;-74
2023/11/21 20:24:51;;;;;;;5.60;2.58;;;;;;;;;;10550091;28;20511;-75
2023/11/21 20:29:59;;;;;;;4.43;2.22;;;;;;;;;;10530320;28;20071;-75
2023/11/21 20:35:12;;;;;;;4.60;2.10;;;;;;;;;;10550481;27;20048;-76
2023/11/21 20:40:17;;;;;;;6.15;2.83;;;;;;;;;;10533837;28;20528;-77
2023/11/21 20:45:23;;;;;;;9.38;3.58;;;;;;;;;;10550322;28;20196;-76
2023/11/21 20:50:28;;;;;;;9.52;3.60;;;;;;;;;;10538090;28;20520;-74
2023/11/21 20:55:30;;;;;;;8.18;3.85;;;;;;;;;;10549145;28;20040;-75
2023/11/21 21:00:34;;;;;;;9.85;4.63;;;;;;;;;;10555433;28;20134;-75
2023/11/21 21:05:39;;;;;;;8.88;4.65;;;;;;;;;;10536687;28;20124;-77
2023/11/21 21:10:42;;;;;;;7.68;3.60;;;;;;;;;;10523297;28;20036;-76
2023/11/21 21:15:48;;;;;;;10.25;4.00;;;;;;;;;;10535226;28;20057;-76
2023/11/21 21:20:52;;;;;;;9.10;4.45;;;;;;;;;;10526013;28;20047;-75
2023/11/21 21:25:56;;;;;;;7.55;3.60;;;;;;;;;;10554450;28;20123;-75
2023/11/21 21:30:59;;;;;;;10.27;4.00;;;;;;;;;;10544961;28;20035;-75
2023/11/21 21:36:04;;;;;;;10.77;4.40;;;;;;;;;;10559072;27;20126;-75
2023/11/21 21:41:09;;;;;;;11.93;4.30;;;;;;;;;;10541644;27;20039;-75
2023/11/21 21:46:15;;;;;;;9.75;4.70;;;;;;;;;;10531160;27;22243;-75
2023/11/21 21:51:20;;;;;;;12.68;4.20;;;;;;;;;;10527901;27;20040;-75
2023/11/21 21:56:23;;;;;;;10.50;4.60;;;;;;;;;;10559834;27;20458;-76
2023/11/21 22:01:26;;;;;;;13.07;4.93;;;;;;;;;;10555611;27;20031;-75
2023/11/21 22:06:30;;;;;;;10.40;4.10;;;;;;;;;;10572176;27;20043;-76
2023/11/21 22:11:33;;;;;;;;;;;;;;;;;;10550365;27;20047;-76
2023/11/21 22:16:37;;;;;;;9.17;4.80;;;;;;;;;;10558484;27;19924;-74
2023/11/21 22:21:42;;;;;;;11.02;4.63;;;;;;;;;;10541773;28;20184;-74
2023/11/21 22:26:47;;;;;;;14.82;5.13;;;;;;;;;;10566039;27;20048;-75
2023/11/21 22:31:50;;;;;;;11.35;5.35;;;;;;;;;;10527139;27;20043;-75
2023/11/21 22:36:55;;;;;;;9.63;4.40;;;;;;;;;;10539889;27;20046;-76
2023/11/21 22:41:59;;;;;;;12.75;4.93;;;;;;;;;;10558689;27;20366;-75
2023/11/21 22:47:03;;;;;;;12.95;4.70;;;;;;;;;;10557893;27;20057;-75
2023/11/21 22:52:08;;;;;;;13.60;5.25;;;;;;;;;;10538899;27;20043;-76
2023/11/21 22:57:11;;;;;;;14.20;4.45;;;;;;;;;;10567546;28;20040;-76
2023/11/21 23:02:15;;;;;;;11.77;4.83;;;;;;;;;;10556909;27;20507;-75
2023/11/21 23:07:19;;;;;;;9.55;4.13;;;;;;;;;;10535863;27;20048;-75
2023/11/21 23:12:23;;;;;;;14.95;5.57;;;;;;;;;;10514459;27;20042;-74
2023/11/21 23:17:27;;;;;;;13.13;4.63;;;;;;;;;;10540764;27;20458;-75
2023/11/21 23:22:32;;;;;;;11.18;4.88;;;;;;;;;;10543412;27;20531;-74
2023/11/21 23:27:35;;;;;;;11.88;4.90;;;;;;;;;;10561371;27;20510;-75
2023/11/21 23:32:39;;;;;;;12.10;5.43;;;;;;;;;;10554953;27;20115;-75
2023/11/21 23:37:44;;;;;;;13.85;5.25;;;;;;;;;;10559542;28;20420;-74
2023/11/21 23:42:47;;;;;;;11.65;3.75;;;;;;;;;;10537614;28;20698;-75
2023/11/21 23:47:51;;;;;;;12.18;4.38;;;;;;;;;;10570367;27;20743;-75
2023/11/21 23:52:56;;;;;;;12.20;5.00;;;;;;;;;;10534840;27;20492;-75
2023/11/21 23:58:00;;;;;;;14.77;4.88;;;;;;;;;;10553076;27;20043;-76
